MDT,Max TemperatureF,Mean TemperatureF,Min TemperatureF,Max Dew PointF,MeanDew PointF,Min DewpointF,Max Humidity, Mean Humidity, Min Humidity, Max Sea Level PressureIn, Mean Sea Level PressureIn, Min Sea Level PressureIn, Max VisibilityMiles, Mean VisibilityMiles, Min VisibilityMiles, Max Wind SpeedMPH, Mean Wind SpeedMPH, Max Gust SpeedMPH,PrecipitationIn, CloudCover, Events, WindDirDegrees
2013-8-1,75,61,47,52,45,39,71,52,33,30.05,29.90,29.77,10,10,8,23,6,32,0.01,4,Rain-Thunderstorm,332
2013-8-2,70,55,39,45,41,37,100,66,31,30.10,30.03,29.94,10,8,0,17,3,22,T,2,Fog,11
2013-8-3,77,59,40,44,36,23,92,53,14,30.10,30.05,30.01,10,10,10,13,4,18,0.00,0,,242
2013-8-4,82,63,43,43,35,25,83,48,13,30.07,30.01,29.95,10,10,10,13,3,17,0.00,0,,66
2013-8-5,85,67,48,44,39,31,71,43,15,29.98,29.94,29.88,10,10,10,16,5,21,0.00,0,,275
2013-8-6,84,66,47,46,38,24,77,45,12,30.00,29.95,29.91,10,10,10,15,3,20,0.00,0,,359
2013-8-7,88,67,46,43,33,22,71,40,9,29.97,29.92,29.86,10,10,10,15,4,20,0.00,0,,294
2013-8-8,88,72,56,39,36,28,55,34,13,30.00,29.88,29.79,10,10,10,28,6,37,T,1,Rain-Thunderstorm,1
2013-8-9,87,71,54,47,41,35,71,44,16,29.99,29.87,29.80,10,10,7,20,6,28,0.00,0,,65
2013-8-10,84,67,49,44,37,24,74,43,12,29.94,29.91,29.88,10,10,6,18,4,22,0.00,1,,190
2013-8-11,84,66,48,47,38,29,71,43,15,30.06,29.96,29.91,10,10,6,20,3,28,0.00,1,Thunderstorm,309
2013-8-12,86,66,45,44,38,26,76,44,12,30.00,29.95,29.91,10,10,10,15,5,18,0.00,0,,345
2013-8-13,85,70,55,49,40,28,77,45,13,30.09,30.00,29.95,10,10,8,18,5,23,0.03,1,Rain,16
2013-8-14,88,68,48,45,37,27,71,41,11,30.09,29.97,29.92,10,10,10,17,3,21,0.00,0,,162
2013-8-15,91,68,45,39,32,19,70,39,8,29.99,29.94,29.89,10,10,10,17,4,23,0.00,0,,167
2013-8-16,88,68,47,43,36,27,66,39,11,30.00,29.95,29.89,10,10,5,17,4,23,0.00,0,,166
2013-8-17,85,66,47,47,40,30,80,47,14,30.04,29.98,29.92,10,10,10,15,4,18,0.00,0,,238
2013-8-18,86,68,49,48,42,27,80,46,12,30.05,30.01,29.98,10,10,10,17,4,29,0.00,0,,268
2013-8-19,88,68,47,44,36,17,71,40,8,30.06,30.00,29.93,10,10,10,18,4,26,0.00,0,,255
2013-8-20,87,68,48,43,38,30,66,40,13,30.01,29.95,29.91,10,10,10,16,4,31,0.00,0,,321
2013-8-21,88,68,48,45,39,31,71,42,13,30.03,29.98,29.94,10,10,10,15,4,20,0.00,0,,321
2013-8-22,82,68,54,52,45,41,71,49,26,30.09,29.95,29.84,10,10,10,16,5,24,0.01,2,Rain-Thunderstorm,200
2013-8-23,78,65,51,52,44,30,89,54,19,30.00,29.87,29.81,10,10,10,21,5,26,0.01,1,Thunderstorm,195
2013-8-24,81,63,45,44,39,34,76,47,18,29.91,29.84,29.76,10,10,6,21,4,29,0.00,0,Thunderstorm,164
2013-8-25,81,64,47,49,43,35,89,56,23,30.01,29.88,29.83,10,10,9,17,5,22,0.06,1,Thunderstorm,160
2013-8-26,77,63,48,48,41,32,86,54,21,30.09,29.97,29.91,10,10,10,24,5,30,0.01,2,Rain-Thunderstorm,179
2013-8-27,84,64,44,45,40,36,71,46,20,30.00,29.92,29.84,10,10,10,18,4,24,0.01,1,Thunderstorm,183
2013-8-28,80,68,55,56,49,38,78,51,23,30.06,29.96,29.81,10,9,2,15,5,18,0.18,4,Rain-Thunderstorm,55
2013-8-29,83,67,50,51,45,37,86,54,21,30.11,30.00,29.96,10,10,10,20,5,25,T,1,Thunderstorm,194
2013-8-30,80,63,46,45,41,30,86,51,16,30.16,30.06,30.00,10,10,6,17,4,23,0.00,0,,279
2013-8-31,85,65,45,45,39,29,80,47,14,30.09,30.02,29.94,10,10,10,12,3,15,0.00,0,,150